createdAt,value
2019-05-26T00:01:24.481Z,6.60
2019-05-26T00:04:29.487Z,6.30
2019-05-26T00:07:34.469Z,5.97
2019-05-26T00:10:39.593Z,5.73
2019-05-26T00:13:44.538Z,6.30
2019-05-26T00:16:49.513Z,6.63
2019-05-26T00:19:54.513Z,6.77
2019-05-26T00:22:59.966Z,6.47
2019-05-26T00:26:05.069Z,6.17
2019-05-26T00:29:10.092Z,6.03
2019-05-26T00:32:15.263Z,6.30
2019-05-26T00:35:20.955Z,6.30
2019-05-26T00:38:26.135Z,6.50
2019-05-26T00:41:31.447Z,6.50
2019-05-26T00:44:36.432Z,6.73
2019-05-26T00:47:42.136Z,5.90
2019-05-26T00:50:47.312Z,6.40
2019-05-26T00:53:52.183Z,6.60
2019-05-26T00:56:57.324Z,6.70
2019-05-26T01:00:02.012Z,6.50
2019-05-26T01:03:06.707Z,5.80
2019-05-26T01:06:11.470Z,5.80
2019-05-26T01:09:16.219Z,7.40
2019-05-26T01:12:21.240Z,5.70
2019-05-26T01:15:25.977Z,5.60
2019-05-26T01:18:30.703Z,6.60
2019-05-26T01:21:35.563Z,6.17
2019-05-26T01:24:40.309Z,5.77
2019-05-26T01:27:45.163Z,5.53
2019-05-26T01:30:50.116Z,5.60
2019-05-26T01:33:54.897Z,5.90
2019-05-26T01:37:00.182Z,6.30
2019-05-26T01:40:05.840Z,5.80
2019-05-26T01:43:11.533Z,6.33
2019-05-26T01:46:16.349Z,6.70
2019-05-26T01:49:21.037Z,5.67
2019-05-26T01:52:25.825Z,5.73
2019-05-26T01:55:30.588Z,6.87
2019-05-26T01:58:35.295Z,6.10
2019-05-26T02:01:39.993Z,6.80
2019-05-26T02:04:44.739Z,6.30
2019-05-26T02:07:49.424Z,5.97
2019-05-26T02:10:54.180Z,6.23
2019-05-26T02:13:58.898Z,6.10
2019-05-26T02:17:04.188Z,5.67
2019-05-26T02:20:09.464Z,6.23
2019-05-26T02:23:14.284Z,6.10
2019-05-26T02:26:18.974Z,5.90
2019-05-26T02:29:23.937Z,6.10
2019-05-26T02:32:28.863Z,5.73
2019-05-26T02:35:34.031Z,6.37
2019-05-26T02:38:59.388Z,6.03
2019-05-26T02:41:45.678Z,5.27
2019-05-26T02:44:50.783Z,6.23
2019-05-26T02:47:56.037Z,6.47
2019-05-26T02:51:01.226Z,5.60
2019-05-26T02:54:06.355Z,6.53
2019-05-26T02:57:11.419Z,6.90
2019-05-26T03:00:18.412Z,6.37
2019-05-26T03:03:23.389Z,6.23
2019-05-26T03:06:28.661Z,6.37
2019-05-26T03:09:34.692Z,6.80
2019-05-26T03:12:42.792Z,6.00
2019-05-26T03:15:48.373Z,5.67
2019-05-26T03:18:53.476Z,5.90
2019-05-26T03:22:00.614Z,6.20
2019-05-26T03:25:07.151Z,6.07
2019-05-26T03:28:11.978Z,7.20
2019-05-26T03:31:17.062Z,6.00
2019-05-26T03:34:22.327Z,6.37
2019-05-26T03:37:30.997Z,6.03
2019-05-26T03:40:36.140Z,6.03
2019-05-26T03:43:41.190Z,6.07
2019-05-26T03:46:46.244Z,6.17
2019-05-26T03:49:51.347Z,5.73
2019-05-26T03:52:56.261Z,5.80
2019-05-26T03:56:01.166Z,5.70
2019-05-26T03:59:06.274Z,6.10
2019-05-26T04:02:11.514Z,5.47
2019-05-26T04:05:16.532Z,6.53
2019-05-26T04:08:21.560Z,6.33
2019-05-26T04:11:26.911Z,5.83
2019-05-26T04:14:31.954Z,5.80
2019-05-26T04:17:37.194Z,6.23
2019-05-26T04:20:45.777Z,6.20
2019-05-26T04:23:48.682Z,5.93
2019-05-26T04:26:53.789Z,6.50
2019-05-26T04:29:58.803Z,5.67
2019-05-26T04:33:03.838Z,5.80
2019-05-26T04:36:08.818Z,7.07
2019-05-26T04:39:13.929Z,6.50
2019-05-26T04:42:37.605Z,5.83
2019-05-26T04:45:44.267Z,6.80
2019-05-26T04:48:49.024Z,6.60
2019-05-26T04:51:54.001Z,6.10
2019-05-26T04:54:59.057Z,6.83
2019-05-26T04:58:04.339Z,6.03
2019-05-26T05:01:09.327Z,5.83
2019-05-26T05:04:14.050Z,6.57
2019-05-26T05:07:19.323Z,6.03
2019-05-26T05:10:39.429Z,5.80
2019-05-26T05:13:31.497Z,6.50
2019-05-26T05:16:36.580Z,6.27
2019-05-26T05:19:41.782Z,6.10
2019-05-26T05:22:46.737Z,6.50
2019-05-26T05:25:51.755Z,6.30
2019-05-26T05:28:56.870Z,5.60
2019-05-26T05:32:01.941Z,6.53
2019-05-26T05:35:07.666Z,6.00
2019-05-26T05:38:12.764Z,6.20
2019-05-26T05:41:17.890Z,6.33
2019-05-26T05:44:22.909Z,5.80
2019-05-26T05:47:28.022Z,5.70
2019-05-26T05:50:33.152Z,6.43
2019-05-26T05:53:38.023Z,6.53
2019-05-26T05:56:43.261Z,5.17
2019-05-26T05:59:48.245Z,6.40
2019-05-26T06:02:53.402Z,6.00
2019-05-26T06:05:58.527Z,6.20
2019-05-26T06:09:03.687Z,6.40
2019-05-26T06:12:08.777Z,6.53
2019-05-26T06:15:17.526Z,6.33
2019-05-26T06:18:23.151Z,5.50
2019-05-26T06:21:28.160Z,5.27
2019-05-26T06:24:33.512Z,6.30
2019-05-26T06:27:38.662Z,5.63
2019-05-26T06:30:44.024Z,6.00
2019-05-26T06:33:49.165Z,5.90
2019-05-26T06:36:54.289Z,5.10
2019-05-26T06:39:59.325Z,6.20
2019-05-26T06:43:05.605Z,6.00
2019-05-26T06:46:11.661Z,6.27
2019-05-26T06:49:16.822Z,6.20
2019-05-26T06:52:21.841Z,4.93
2019-05-26T06:55:27.091Z,5.63
2019-05-26T06:58:32.152Z,5.13
2019-05-26T07:01:37.410Z,5.20
2019-05-26T07:04:42.437Z,4.77
2019-05-26T07:07:47.488Z,5.03
2019-05-26T07:10:52.338Z,4.23
2019-05-26T07:13:57.505Z,4.50
2019-05-26T07:17:02.443Z,5.03
2019-05-26T07:20:08.562Z,4.97
2019-05-26T07:23:13.947Z,4.83
2019-05-26T07:26:18.941Z,4.33
2019-05-26T07:29:23.944Z,4.13
2019-05-26T07:32:28.950Z,4.30
2019-05-26T07:35:34.618Z,4.33
2019-05-26T07:38:39.906Z,5.40
2019-05-26T07:41:44.935Z,4.53
2019-05-26T07:44:50.215Z,5.67
2019-05-26T07:47:55.032Z,5.00
2019-05-26T07:51:00.027Z,4.20
2019-05-26T07:54:05.054Z,4.90
2019-05-26T07:57:10.095Z,5.00
2019-05-26T08:00:15.429Z,5.07
2019-05-26T08:03:20.422Z,4.80
2019-05-26T08:06:25.408Z,5.37
2019-05-26T08:09:30.530Z,4.73
2019-05-26T08:12:35.656Z,5.37
2019-05-26T08:15:40.641Z,5.43
2019-05-26T08:18:45.612Z,5.57
2019-05-26T08:21:54.255Z,5.27
2019-05-26T08:24:57.523Z,5.50
2019-05-26T08:28:02.505Z,5.53
2019-05-26T08:31:07.544Z,5.07
2019-05-26T08:34:12.728Z,5.00
2019-05-26T08:37:17.722Z,4.87
2019-05-26T08:40:22.773Z,4.97
2019-05-26T08:43:27.934Z,4.70
2019-05-26T08:46:33.094Z,5.23
2019-05-26T08:49:38.069Z,5.30
2019-05-26T08:52:43.075Z,4.87
2019-05-26T08:55:48.052Z,5.00
2019-05-26T08:58:53.022Z,4.73
2019-05-26T09:01:58.027Z,4.37
2019-05-26T09:05:03.222Z,4.50
2019-05-26T09:08:08.458Z,4.37
2019-05-26T09:11:13.519Z,3.63
2019-05-26T09:14:18.234Z,3.90
2019-05-26T09:17:23.533Z,4.10
2019-05-26T09:20:28.762Z,4.13
2019-05-26T09:23:33.838Z,4.30
2019-05-26T09:26:38.927Z,4.63
2019-05-26T09:29:43.901Z,4.30
2019-05-26T09:32:49.033Z,4.87
2019-05-26T09:35:54.285Z,4.80
2019-05-26T09:38:59.380Z,4.30
2019-05-26T09:42:05.015Z,4.97
2019-05-26T09:45:10.545Z,4.10
2019-05-26T09:48:15.647Z,5.03
2019-05-26T09:51:20.507Z,5.37
2019-05-26T09:54:25.516Z,4.50
2019-05-26T09:57:30.456Z,5.07
2019-05-26T10:00:35.765Z,4.03
2019-05-26T10:03:40.752Z,4.33
2019-05-26T10:06:45.671Z,3.87
2019-05-26T10:09:50.642Z,3.83
2019-05-26T10:12:55.553Z,4.40
2019-05-26T10:16:00.649Z,5.10
2019-05-26T10:19:05.679Z,4.97
2019-05-26T10:22:10.890Z,5.63
2019-05-26T10:25:16.020Z,5.90
2019-05-26T10:28:21.048Z,5.47
2019-05-26T10:31:25.912Z,5.80
2019-05-26T10:34:31.107Z,5.77
2019-05-26T10:37:36.485Z,5.60
2019-05-26T10:40:41.624Z,5.53
2019-05-26T10:43:47.956Z,5.90
2019-05-26T10:46:52.973Z,4.97
2019-05-26T10:50:00.955Z,4.60
2019-05-26T10:53:06.309Z,4.63
2019-05-26T10:56:11.394Z,4.63
2019-05-26T10:59:16.447Z,5.00
2019-05-26T11:02:41.749Z,4.90
2019-05-26T11:05:46.714Z,4.10
2019-05-26T11:08:51.633Z,4.50
2019-05-26T11:11:56.576Z,4.43
2019-05-26T11:15:01.421Z,3.50
2019-05-26T11:18:06.416Z,3.30
2019-05-26T11:21:12.514Z,3.93
2019-05-26T11:24:17.515Z,4.03
2019-05-26T11:27:22.257Z,4.00
2019-05-26T11:30:28.307Z,4.90
2019-05-26T11:33:33.084Z,4.50
2019-05-26T11:36:37.909Z,5.13
2019-05-26T11:39:42.736Z,3.70
2019-05-26T11:42:47.436Z,4.37
2019-05-26T11:45:52.222Z,5.50
2019-05-26T11:48:56.909Z,5.27
2019-05-26T11:52:02.085Z,4.30
2019-05-26T11:55:07.205Z,5.70
2019-05-26T11:58:11.973Z,4.80
2019-05-26T12:01:22.872Z,4.60
2019-05-26T12:04:26.209Z,5.33
2019-05-26T12:07:31.007Z,4.87
2019-05-26T12:10:35.793Z,5.20
2019-05-26T12:13:40.511Z,4.60
2019-05-26T12:16:45.238Z,4.97
2019-05-26T12:19:50.017Z,4.00
2019-05-26T12:22:54.854Z,4.30
2019-05-26T12:25:59.580Z,4.47
2019-05-26T12:29:04.595Z,4.20
2019-05-26T12:32:09.375Z,4.10
2019-05-26T12:35:15.054Z,3.63
2019-05-26T12:38:19.793Z,3.60
2019-05-26T12:41:24.618Z,3.23
2019-05-26T12:44:29.477Z,3.20
2019-05-26T12:47:34.331Z,3.50
2019-05-26T12:50:39.289Z,3.47
2019-05-26T12:53:44.030Z,3.40
2019-05-26T12:56:48.829Z,3.63
2019-05-26T12:59:53.537Z,3.30
2019-05-26T13:02:58.273Z,2.90
2019-05-26T13:06:03.009Z,3.37
2019-05-26T13:09:10.079Z,3.53
2019-05-26T13:12:14.925Z,3.93
2019-05-26T13:15:21.753Z,3.70
2019-05-26T13:18:26.836Z,3.77
2019-05-26T13:21:32.005Z,3.27
2019-05-26T13:24:36.973Z,3.30
2019-05-26T13:27:41.773Z,3.70
2019-05-26T13:30:46.661Z,3.87
2019-05-26T13:33:51.408Z,3.40
2019-05-26T13:36:56.138Z,2.67
2019-05-26T13:40:00.929Z,2.93
2019-05-26T13:43:05.804Z,2.80
2019-05-26T13:46:10.591Z,2.97
2019-05-26T13:49:15.390Z,3.27
2019-05-26T13:52:20.285Z,3.23
2019-05-26T13:55:24.991Z,3.00
2019-05-26T13:58:29.776Z,3.27
2019-05-26T14:01:34.453Z,3.47
2019-05-26T14:04:39.212Z,3.30
2019-05-26T14:07:44.028Z,3.23
2019-05-26T14:10:48.778Z,3.10
2019-05-26T14:13:53.935Z,3.70
2019-05-26T14:17:00.645Z,3.20
2019-05-26T14:20:06.900Z,3.30
2019-05-26T14:23:12.084Z,3.00
2019-05-26T14:26:16.820Z,3.10
2019-05-26T14:29:21.656Z,2.97
2019-05-26T14:32:26.381Z,2.83
2019-05-26T14:35:31.170Z,2.43
2019-05-26T14:38:43.184Z,3.50
2019-05-26T14:41:42.229Z,3.57
2019-05-26T14:44:46.943Z,3.40
2019-05-26T14:47:51.687Z,3.43
2019-05-26T14:50:56.479Z,4.13
2019-05-26T14:54:01.566Z,3.77
2019-05-26T14:57:06.473Z,3.27
2019-05-26T15:00:12.001Z,3.80
2019-05-26T15:03:16.782Z,3.40
2019-05-26T15:06:21.526Z,4.50
2019-05-26T15:09:26.197Z,3.87
2019-05-26T15:12:30.956Z,4.20
2019-05-26T15:15:35.691Z,4.00
2019-05-26T15:18:40.498Z,3.93
2019-05-26T15:21:45.272Z,3.93
2019-05-26T15:24:50.029Z,4.07
2019-05-26T15:27:55.015Z,3.93
2019-05-26T15:30:59.776Z,3.77
2019-05-26T15:34:04.773Z,3.70
2019-05-26T15:37:10.383Z,4.00
2019-05-26T15:40:16.343Z,3.63
2019-05-26T15:43:21.378Z,3.60
2019-05-26T15:46:26.284Z,3.60
2019-05-26T15:49:31.266Z,3.50
2019-05-26T15:52:43.970Z,3.80
2019-05-26T15:55:49.023Z,3.23
2019-05-26T15:58:54.189Z,3.80
2019-05-26T16:01:59.355Z,3.47
2019-05-26T16:05:05.358Z,3.90
2019-05-26T16:08:29.281Z,3.47
2019-05-26T16:11:34.473Z,3.70
2019-05-26T16:14:39.330Z,3.80
2019-05-26T16:17:44.519Z,4.27
2019-05-26T16:21:02.653Z,4.47
2019-05-26T16:23:58.558Z,4.53
2019-05-26T16:27:22.344Z,3.97
2019-05-26T16:30:27.433Z,3.70
2019-05-26T16:33:32.329Z,3.50
2019-05-26T16:36:37.395Z,3.00
2019-05-26T16:39:42.619Z,3.10
2019-05-26T16:42:47.783Z,3.50
2019-05-26T16:45:56.351Z,3.30
2019-05-26T16:48:59.645Z,3.17
2019-05-26T16:52:04.641Z,3.47
2019-05-26T16:55:10.261Z,3.70
2019-05-26T16:58:15.266Z,3.40
2019-05-26T17:01:20.576Z,3.47
2019-05-26T17:04:25.718Z,3.20
2019-05-26T17:07:30.992Z,3.50
2019-05-26T17:10:36.154Z,3.30
2019-05-26T17:13:41.337Z,3.20
2019-05-26T17:16:46.339Z,3.80
2019-05-26T17:19:52.892Z,3.57
2019-05-26T17:23:00.556Z,3.73
2019-05-26T17:26:05.668Z,3.80
2019-05-26T17:29:10.683Z,3.50
2019-05-26T17:32:15.642Z,3.40
2019-05-26T17:35:22.047Z,3.70
2019-05-26T17:38:27.027Z,4.20
2019-05-26T17:41:32.534Z,3.73
2019-05-26T17:44:37.523Z,3.70
2019-05-26T17:47:42.748Z,3.80
2019-05-26T17:50:47.690Z,4.27
2019-05-26T17:53:52.727Z,3.87
2019-05-26T17:56:58.141Z,3.30
2019-05-26T18:00:03.436Z,3.60
2019-05-26T18:03:29.702Z,4.07
2019-05-26T18:06:35.017Z,3.90
2019-05-26T18:09:44.318Z,4.60
2019-05-26T18:12:47.151Z,3.97
2019-05-26T18:15:52.300Z,5.07
2019-05-26T18:18:57.666Z,4.43
2019-05-26T18:22:02.828Z,4.60
2019-05-26T18:25:09.021Z,4.47
2019-05-26T18:28:14.324Z,4.43
2019-05-26T18:31:20.147Z,4.33
2019-05-26T18:34:25.194Z,4.50
2019-05-26T18:37:30.253Z,4.33
2019-05-26T18:40:35.289Z,4.70
2019-05-26T18:43:40.273Z,4.40
2019-05-26T18:46:45.409Z,5.40
2019-05-26T18:49:50.841Z,4.47
2019-05-26T18:52:56.182Z,5.27
2019-05-26T18:56:01.443Z,6.03
2019-05-26T18:59:06.679Z,5.67
2019-05-26T19:02:11.836Z,4.30
2019-05-26T19:05:30.391Z,4.83
2019-05-26T19:08:24.036Z,5.30
2019-05-26T19:11:29.437Z,5.70
2019-05-26T19:14:34.619Z,5.27
2019-05-26T19:17:40.238Z,5.90
2019-05-26T19:20:45.600Z,5.53
2019-05-26T19:23:50.577Z,5.53
2019-05-26T19:26:55.923Z,5.53
2019-05-26T19:30:01.005Z,5.63
2019-05-26T19:33:08.558Z,5.97
2019-05-26T19:36:13.593Z,5.73
2019-05-26T19:39:24.162Z,5.40
2019-05-26T19:42:30.629Z,6.20
2019-05-26T19:45:36.028Z,6.87
2019-05-26T19:48:41.213Z,6.20
2019-05-26T19:51:46.788Z,7.87
2019-05-26T19:54:51.970Z,6.40
2019-05-26T19:57:56.954Z,6.70
2019-05-26T20:01:01.974Z,5.93
2019-05-26T20:04:07.389Z,6.40
2019-05-26T20:07:12.450Z,6.37
2019-05-26T20:10:18.020Z,5.70
2019-05-26T20:13:23.093Z,5.40
2019-05-26T20:16:30.708Z,5.80
2019-05-26T20:19:34.990Z,6.17
2019-05-26T20:22:40.178Z,6.57
2019-05-26T20:25:45.355Z,6.03
2019-05-26T20:28:50.440Z,5.73
2019-05-26T20:31:55.341Z,6.60
2019-05-26T20:35:00.456Z,6.53
2019-05-26T20:38:05.469Z,6.87
2019-05-26T20:41:10.596Z,6.17
2019-05-26T20:44:15.910Z,6.27
2019-05-26T20:47:20.772Z,5.90
2019-05-26T20:50:29.606Z,5.80
2019-05-26T20:53:32.828Z,5.60
2019-05-26T20:56:37.968Z,6.20
2019-05-26T20:59:42.879Z,6.33
2019-05-26T21:02:47.808Z,6.43
2019-05-26T21:06:01.684Z,6.70
2019-05-26T21:09:11.073Z,5.93
2019-05-26T21:12:14.965Z,5.70
2019-05-26T21:15:20.682Z,6.40
2019-05-26T21:18:25.597Z,5.77
2019-05-26T21:21:30.704Z,6.63
2019-05-26T21:24:36.018Z,6.10
2019-05-26T21:27:41.307Z,6.60
2019-05-26T21:30:46.419Z,6.80
2019-05-26T21:33:51.592Z,7.40
2019-05-26T21:36:56.717Z,6.60
2019-05-26T21:40:02.135Z,7.00
2019-05-26T21:43:07.192Z,6.50
2019-05-26T21:46:12.313Z,7.23
2019-05-26T21:49:17.428Z,6.07
2019-05-26T21:52:22.504Z,6.53
2019-05-26T21:55:27.701Z,6.77
2019-05-26T21:58:32.872Z,6.37
2019-05-26T22:01:37.717Z,7.43
2019-05-26T22:04:42.774Z,6.30
2019-05-26T22:07:47.836Z,6.60
2019-05-26T22:10:52.811Z,7.10
2019-05-26T22:13:57.793Z,8.00
2019-05-26T22:17:02.853Z,7.13
2019-05-26T22:20:08.557Z,6.77
2019-05-26T22:23:13.575Z,7.07
2019-05-26T22:26:18.944Z,6.70
2019-05-26T22:29:23.819Z,7.00
2019-05-26T22:32:29.037Z,6.20
2019-05-26T22:35:34.099Z,6.43
2019-05-26T22:38:39.290Z,6.47
2019-05-26T22:41:44.420Z,6.63
2019-05-26T22:44:49.394Z,7.10
2019-05-26T22:47:54.671Z,7.00
2019-05-26T22:50:59.982Z,7.03
2019-05-26T22:54:05.006Z,7.27
2019-05-26T22:57:10.146Z,7.00
2019-05-26T23:00:15.630Z,7.13
2019-05-26T23:03:20.622Z,7.87
2019-05-26T23:06:25.826Z,7.30
2019-05-26T23:09:31.000Z,6.53
2019-05-26T23:12:36.000Z,6.80
2019-05-26T23:15:41.144Z,7.87
2019-05-26T23:18:47.345Z,7.07
2019-05-26T23:21:52.357Z,7.63
2019-05-26T23:24:57.427Z,7.10
2019-05-26T23:28:02.422Z,6.70
2019-05-26T23:31:07.489Z,7.90
2019-05-26T23:34:12.504Z,7.03
2019-05-26T23:37:17.739Z,6.90
2019-05-26T23:40:22.776Z,8.20
2019-05-26T23:43:27.588Z,7.00
2019-05-26T23:46:32.662Z,7.60
2019-05-26T23:49:37.720Z,7.53
2019-05-26T23:52:42.734Z,7.90
2019-05-26T23:55:47.779Z,7.50
2019-05-26T23:58:52.855Z,7.10
